sensor_id;sensor_type;location;lat;lon;timestamp;P1;durP1;ratioP1;P2;durP2;ratioP2
20014;SDS011;61787;42.022;23.078;2023-07-22T00:00:26;14.90;;;5.97;;
20014;SDS011;61787;42.022;23.078;2023-07-22T00:01:28;14.95;;;5.95;;
20014;SDS011;61787;42.022;23.078;2023-07-22T00:02:30;14.65;;;6.38;;
20014;SDS011;61787;42.022;23.078;2023-07-22T00:03:32;14.32;;;6.45;;
20014;SDS011;61787;42.022;23.078;2023-07-22T00:04:34;19.17;;;6.47;;
20014;SDS011;61787;42.022;23.078;2023-07-22T00:05:36;12.00;;;5.53;;
20014;SDS011;61787;42.022;23.078;2023-07-22T00:06:38;17.17;;;6.72;;
20014;SDS011;61787;42.022;23.078;2023-07-22T00:07:39;13.40;;;6.00;;
20014;SDS011;61787;42.022;23.078;2023-07-22T00:08:41;14.00;;;5.70;;
20014;SDS011;61787;42.022;23.078;2023-07-22T00:09:43;13.02;;;6.10;;
20014;SDS011;61787;42.022;23.078;2023-07-22T00:10:45;13.40;;;5.57;;
20014;SDS011;61787;42.022;23.078;2023-07-22T00:11:48;14.38;;;5.88;;
20014;SDS011;61787;42.022;23.078;2023-07-22T00:12:51;15.43;;;5.93;;
20014;SDS011;61787;42.022;23.078;2023-07-22T00:13:52;14.18;;;6.07;;
20014;SDS011;61787;42.022;23.078;2023-07-22T00:14:54;16.08;;;6.47;;
20014;SDS011;61787;42.022;23.078;2023-07-22T00:15:56;11.40;;;6.05;;
20014;SDS011;61787;42.022;23.078;2023-07-22T00:17:00;17.05;;;5.88;;
20014;SDS011;61787;42.022;23.078;2023-07-22T00:18:02;12.63;;;5.90;;
20014;SDS011;61787;42.022;23.078;2023-07-22T00:19:04;14.40;;;5.68;;
20014;SDS011;61787;42.022;23.078;2023-07-22T00:20:05;13.18;;;6.22;;
20014;SDS011;61787;42.022;23.078;2023-07-22T00:21:08;11.75;;;6.00;;
20014;SDS011;61787;42.022;23.078;2023-07-22T00:22:10;13.15;;;6.40;;
20014;SDS011;61787;42.022;23.078;2023-07-22T00:23:13;14.18;;;6.10;;
20014;SDS011;61787;42.022;23.078;2023-07-22T00:24:16;18.85;;;6.10;;
20014;SDS011;61787;42.022;23.078;2023-07-22T00:25:18;16.90;;;5.82;;
20014;SDS011;61787;42.022;23.078;2023-07-22T00:26:19;17.17;;;6.70;;
20014;SDS011;61787;42.022;23.078;2023-07-22T00:27:21;11.90;;;6.28;;
20014;SDS011;61787;42.022;23.078;2023-07-22T00:28:23;12.60;;;6.03;;
20014;SDS011;61787;42.022;23.078;2023-07-22T00:29:24;16.83;;;6.32;;
20014;SDS011;61787;42.022;23.078;2023-07-22T00:30:26;12.38;;;6.38;;
20014;SDS011;61787;42.022;23.078;2023-07-22T00:31:29;15.13;;;7.13;;
20014;SDS011;61787;42.022;23.078;2023-07-22T00:32:31;20.38;;;7.03;;
20014;SDS011;61787;42.022;23.078;2023-07-22T00:33:32;15.23;;;6.53;;
20014;SDS011;61787;42.022;23.078;2023-07-22T00:34:34;13.52;;;6.40;;
20014;SDS011;61787;42.022;23.078;2023-07-22T00:35:37;16.48;;;6.63;;
20014;SDS011;61787;42.022;23.078;2023-07-22T00:36:39;13.98;;;6.22;;
20014;SDS011;61787;42.022;23.078;2023-07-22T00:37:41;15.52;;;7.00;;
20014;SDS011;61787;42.022;23.078;2023-07-22T00:38:42;14.13;;;6.18;;
20014;SDS011;61787;42.022;23.078;2023-07-22T00:39:44;13.00;;;5.97;;
20014;SDS011;61787;42.022;23.078;2023-07-22T00:40:46;13.48;;;6.38;;
20014;SDS011;61787;42.022;23.078;2023-07-22T00:41:47;16.15;;;6.90;;
20014;SDS011;61787;42.022;23.078;2023-07-22T00:42:49;16.75;;;7.00;;
20014;SDS011;61787;42.022;23.078;2023-07-22T00:43:51;15.45;;;6.93;;
20014;SDS011;61787;42.022;23.078;2023-07-22T00:44:52;13.07;;;6.70;;
20014;SDS011;61787;42.022;23.078;2023-07-22T00:45:54;13.05;;;6.32;;
20014;SDS011;61787;42.022;23.078;2023-07-22T00:46:56;14.52;;;6.13;;
20014;SDS011;61787;42.022;23.078;2023-07-22T00:47:59;15.65;;;7.00;;
20014;SDS011;61787;42.022;23.078;2023-07-22T00:49:01;14.23;;;6.90;;
20014;SDS011;61787;42.022;23.078;2023-07-22T00:50:04;13.43;;;6.30;;
20014;SDS011;61787;42.022;23.078;2023-07-22T00:51:08;19.35;;;6.95;;
20014;SDS011;61787;42.022;23.078;2023-07-22T00:52:09;12.05;;;6.53;;
20014;SDS011;61787;42.022;23.078;2023-07-22T00:53:11;11.50;;;5.93;;
20014;SDS011;61787;42.022;23.078;2023-07-22T00:54:13;13.23;;;6.50;;
20014;SDS011;61787;42.022;23.078;2023-07-22T00:55:15;14.90;;;7.22;;
20014;SDS011;61787;42.022;23.078;2023-07-22T00:56:17;14.27;;;6.45;;
20014;SDS011;61787;42.022;23.078;2023-07-22T00:57:18;18.02;;;6.82;;
20014;SDS011;61787;42.022;23.078;2023-07-22T00:58:20;12.50;;;6.53;;
20014;SDS011;61787;42.022;23.078;2023-07-22T00:59:23;16.42;;;6.43;;
20014;SDS011;61787;42.022;23.078;2023-07-22T01:00:25;11.55;;;6.18;;
20014;SDS011;61787;42.022;23.078;2023-07-22T01:01:27;14.05;;;6.95;;
20014;SDS011;61787;42.022;23.078;2023-07-22T01:02:29;14.98;;;6.45;;
20014;SDS011;61787;42.022;23.078;2023-07-22T01:03:31;17.58;;;6.95;;
20014;SDS011;61787;42.022;23.078;2023-07-22T01:04:33;12.98;;;6.32;;
20014;SDS011;61787;42.022;23.078;2023-07-22T01:05:36;13.13;;;6.50;;
20014;SDS011;61787;42.022;23.078;2023-07-22T01:06:39;15.45;;;7.47;;
20014;SDS011;61787;42.022;23.078;2023-07-22T01:07:40;16.65;;;7.07;;
20014;SDS011;61787;42.022;23.078;2023-07-22T01:08:43;12.13;;;7.30;;
20014;SDS011;61787;42.022;23.078;2023-07-22T01:09:45;16.63;;;6.43;;
20014;SDS011;61787;42.022;23.078;2023-07-22T01:10:46;16.33;;;6.82;;
20014;SDS011;61787;42.022;23.078;2023-07-22T01:11:49;16.77;;;7.15;;
20014;SDS011;61787;42.022;23.078;2023-07-22T01:12:51;19.10;;;7.20;;
20014;SDS011;61787;42.022;23.078;2023-07-22T01:13:52;12.05;;;6.20;;
20014;SDS011;61787;42.022;23.078;2023-07-22T01:14:59;13.57;;;6.75;;
20014;SDS011;61787;42.022;23.078;2023-07-22T01:16:01;18.33;;;6.75;;
20014;SDS011;61787;42.022;23.078;2023-07-22T01:17:04;16.17;;;6.57;;
20014;SDS011;61787;42.022;23.078;2023-07-22T01:18:07;12.40;;;6.85;;
20014;SDS011;61787;42.022;23.078;2023-07-22T01:19:10;12.63;;;6.90;;
20014;SDS011;61787;42.022;23.078;2023-07-22T01:20:14;14.80;;;6.60;;
20014;SDS011;61787;42.022;23.078;2023-07-22T01:21:17;17.60;;;7.53;;
20014;SDS011;61787;42.022;23.078;2023-07-22T01:22:21;13.93;;;6.45;;
20014;SDS011;61787;42.022;23.078;2023-07-22T01:23:23;16.92;;;6.68;;
20014;SDS011;61787;42.022;23.078;2023-07-22T01:24:25;12.45;;;6.45;;
20014;SDS011;61787;42.022;23.078;2023-07-22T01:25:27;13.45;;;6.20;;
20014;SDS011;61787;42.022;23.078;2023-07-22T01:26:31;12.80;;;6.15;;
20014;SDS011;61787;42.022;23.078;2023-07-22T01:27:32;15.02;;;6.15;;
20014;SDS011;61787;42.022;23.078;2023-07-22T01:28:34;14.32;;;6.35;;
20014;SDS011;61787;42.022;23.078;2023-07-22T01:29:37;18.73;;;6.63;;
20014;SDS011;61787;42.022;23.078;2023-07-22T01:30:38;13.95;;;6.20;;
20014;SDS011;61787;42.022;23.078;2023-07-22T01:31:41;12.45;;;6.50;;
20014;SDS011;61787;42.022;23.078;2023-07-22T01:32:42;17.52;;;6.68;;
20014;SDS011;61787;42.022;23.078;2023-07-22T01:33:44;16.08;;;6.50;;
20014;SDS011;61787;42.022;23.078;2023-07-22T01:34:46;11.77;;;6.18;;
20014;SDS011;61787;42.022;23.078;2023-07-22T01:35:48;14.90;;;6.88;;
20014;SDS011;61787;42.022;23.078;2023-07-22T01:36:50;12.48;;;6.15;;
20014;SDS011;61787;42.022;23.078;2023-07-22T01:37:52;14.45;;;6.30;;
20014;SDS011;61787;42.022;23.078;2023-07-22T01:38:53;13.50;;;6.22;;
20014;SDS011;61787;42.022;23.078;2023-07-22T01:39:56;13.65;;;6.40;;
20014;SDS011;61787;42.022;23.078;2023-07-22T01:40:58;14.43;;;6.93;;
20014;SDS011;61787;42.022;23.078;2023-07-22T01:42:00;12.63;;;6.35;;
20014;SDS011;61787;42.022;23.078;2023-07-22T01:43:01;13.85;;;6.50;;
20014;SDS011;61787;42.022;23.078;2023-07-22T01:44:03;11.23;;;5.90;;
20014;SDS011;61787;42.022;23.078;2023-07-22T01:45:05;16.55;;;7.38;;
20014;SDS011;61787;42.022;23.078;2023-07-22T01:46:11;14.52;;;7.07;;
20014;SDS011;61787;42.022;23.078;2023-07-22T01:47:13;18.23;;;7.43;;
20014;SDS011;61787;42.022;23.078;2023-07-22T01:48:15;14.00;;;7.15;;
20014;SDS011;61787;42.022;23.078;2023-07-22T01:49:17;14.70;;;7.30;;
20014;SDS011;61787;42.022;23.078;2023-07-22T01:50:19;22.90;;;7.13;;
20014;SDS011;61787;42.022;23.078;2023-07-22T01:51:20;15.98;;;7.30;;
20014;SDS011;61787;42.022;23.078;2023-07-22T01:52:22;14.98;;;7.05;;
20014;SDS011;61787;42.022;23.078;2023-07-22T01:53:24;15.25;;;7.22;;
20014;SDS011;61787;42.022;23.078;2023-07-22T01:54:25;14.05;;;7.88;;
20014;SDS011;61787;42.022;23.078;2023-07-22T01:55:27;14.75;;;6.60;;
20014;SDS011;61787;42.022;23.078;2023-07-22T01:56:29;12.48;;;7.10;;
20014;SDS011;61787;42.022;23.078;2023-07-22T01:57:31;13.30;;;6.88;;
20014;SDS011;61787;42.022;23.078;2023-07-22T01:58:33;18.35;;;7.22;;
20014;SDS011;61787;42.022;23.078;2023-07-22T01:59:35;17.30;;;7.18;;
20014;SDS011;61787;42.022;23.078;2023-07-22T02:00:37;16.00;;;7.05;;
20014;SDS011;61787;42.022;23.078;2023-07-22T02:01:39;16.13;;;7.55;;
20014;SDS011;61787;42.022;23.078;2023-07-22T02:02:41;15.40;;;7.10;;
20014;SDS011;61787;42.022;23.078;2023-07-22T02:03:43;12.35;;;6.80;;
20014;SDS011;61787;42.022;23.078;2023-07-22T02:04:45;14.52;;;7.10;;
20014;SDS011;61787;42.022;23.078;2023-07-22T02:05:47;14.35;;;7.30;;
20014;SDS011;61787;42.022;23.078;2023-07-22T02:06:49;13.85;;;7.72;;
20014;SDS011;61787;42.022;23.078;2023-07-22T02:07:51;14.70;;;7.80;;
20014;SDS011;61787;42.022;23.078;2023-07-22T02:08:52;16.67;;;7.40;;
20014;SDS011;61787;42.022;23.078;2023-07-22T02:09:54;13.25;;;6.88;;
20014;SDS011;61787;42.022;23.078;2023-07-22T02:11:03;15.85;;;7.65;;
20014;SDS011;61787;42.022;23.078;2023-07-22T02:12:06;17.80;;;7.75;;
20014;SDS011;61787;42.022;23.078;2023-07-22T02:13:08;16.65;;;7.55;;
20014;SDS011;61787;42.022;23.078;2023-07-22T02:14:10;14.70;;;7.72;;
20014;SDS011;61787;42.022;23.078;2023-07-22T02:15:12;13.15;;;7.53;;
20014;SDS011;61787;42.022;23.078;2023-07-22T02:16:13;12.25;;;7.38;;
20014;SDS011;61787;42.022;23.078;2023-07-22T02:17:15;15.10;;;7.43;;
20014;SDS011;61787;42.022;23.078;2023-07-22T02:18:17;14.75;;;7.20;;
20014;SDS011;61787;42.022;23.078;2023-07-22T02:19:18;17.17;;;7.15;;
20014;SDS011;61787;42.022;23.078;2023-07-22T02:20:20;17.05;;;7.57;;
20014;SDS011;61787;42.022;23.078;2023-07-22T02:21:22;15.07;;;7.78;;
20014;SDS011;61787;42.022;23.078;2023-07-22T02:22:23;14.90;;;8.05;;
20014;SDS011;61787;42.022;23.078;2023-07-22T02:23:25;13.90;;;7.28;;
20014;SDS011;61787;42.022;23.078;2023-07-22T02:24:26;19.88;;;7.70;;
20014;SDS011;61787;42.022;23.078;2023-07-22T02:25:28;13.32;;;7.35;;
20014;SDS011;61787;42.022;23.078;2023-07-22T02:26:30;14.52;;;7.22;;
20014;SDS011;61787;42.022;23.078;2023-07-22T02:27:32;17.25;;;7.50;;
20014;SDS011;61787;42.022;23.078;2023-07-22T02:28:33;10.80;;;6.82;;
20014;SDS011;61787;42.022;23.078;2023-07-22T02:29:35;12.68;;;7.53;;
20014;SDS011;61787;42.022;23.078;2023-07-22T02:30:37;11.63;;;6.55;;
20014;SDS011;61787;42.022;23.078;2023-07-22T02:31:39;16.00;;;7.40;;
20014;SDS011;61787;42.022;23.078;2023-07-22T02:32:41;15.82;;;7.38;;
20014;SDS011;61787;42.022;23.078;2023-07-22T02:33:43;18.45;;;7.55;;
20014;SDS011;61787;42.022;23.078;2023-07-22T02:34:44;14.93;;;7.05;;
20014;SDS011;61787;42.022;23.078;2023-07-22T02:35:46;18.80;;;7.22;;
20014;SDS011;61787;42.022;23.078;2023-07-22T02:36:49;12.10;;;7.45;;
20014;SDS011;61787;42.022;23.078;2023-07-22T02:37:50;20.20;;;7.57;;
20014;SDS011;61787;42.022;23.078;2023-07-22T02:38:52;16.65;;;7.20;;
20014;SDS011;61787;42.022;23.078;2023-07-22T02:39:54;16.58;;;7.50;;
20014;SDS011;61787;42.022;23.078;2023-07-22T02:41:03;16.80;;;7.05;;
20014;SDS011;61787;42.022;23.078;2023-07-22T02:42:08;16.15;;;8.07;;
20014;SDS011;61787;42.022;23.078;2023-07-22T02:43:09;16.67;;;7.40;;
20014;SDS011;61787;42.022;23.078;2023-07-22T02:44:11;13.63;;;6.97;;
20014;SDS011;61787;42.022;23.078;2023-07-22T02:45:13;11.80;;;7.07;;
20014;SDS011;61787;42.022;23.078;2023-07-22T02:46:15;15.35;;;7.53;;
20014;SDS011;61787;42.022;23.078;2023-07-22T02:47:17;12.90;;;7.22;;
20014;SDS011;61787;42.022;23.078;2023-07-22T02:48:19;12.50;;;7.00;;
20014;SDS011;61787;42.022;23.078;2023-07-22T02:49:21;14.25;;;7.03;;
20014;SDS011;61787;42.022;23.078;2023-07-22T02:50:22;16.52;;;7.80;;
20014;SDS011;61787;42.022;23.078;2023-07-22T02:51:24;15.43;;;7.05;;
20014;SDS011;61787;42.022;23.078;2023-07-22T02:52:26;11.48;;;6.75;;
20014;SDS011;61787;42.022;23.078;2023-07-22T02:53:27;12.25;;;7.45;;
20014;SDS011;61787;42.022;23.078;2023-07-22T02:54:29;12.50;;;7.43;;
20014;SDS011;61787;42.022;23.078;2023-07-22T02:55:31;13.32;;;7.30;;
20014;SDS011;61787;42.022;23.078;2023-07-22T02:56:32;14.25;;;7.88;;
20014;SDS011;61787;42.022;23.078;2023-07-22T02:57:34;13.68;;;8.35;;
20014;SDS011;61787;42.022;23.078;2023-07-22T02:58:36;17.52;;;8.88;;
20014;SDS011;61787;42.022;23.078;2023-07-22T02:59:38;16.08;;;7.95;;
20014;SDS011;61787;42.022;23.078;2023-07-22T03:00:39;19.60;;;8.27;;
20014;SDS011;61787;42.022;23.078;2023-07-22T03:01:41;18.27;;;8.35;;
20014;SDS011;61787;42.022;23.078;2023-07-22T03:02:43;17.73;;;8.35;;
20014;SDS011;61787;42.022;23.078;2023-07-22T03:03:44;17.42;;;8.02;;
20014;SDS011;61787;42.022;23.078;2023-07-22T03:04:46;15.32;;;7.60;;
20014;SDS011;61787;42.022;23.078;2023-07-22T03:05:48;15.90;;;7.95;;
20014;SDS011;61787;42.022;23.078;2023-07-22T03:06:49;12.13;;;7.28;;
20014;SDS011;61787;42.022;23.078;2023-07-22T03:07:51;17.23;;;7.70;;
20014;SDS011;61787;42.022;23.078;2023-07-22T03:08:54;17.08;;;8.82;;
20014;SDS011;61787;42.022;23.078;2023-07-22T03:09:56;15.80;;;7.15;;
20014;SDS011;61787;42.022;23.078;2023-07-22T03:10:58;17.25;;;8.00;;
20014;SDS011;61787;42.022;23.078;2023-07-22T03:11:59;13.90;;;7.35;;
20014;SDS011;61787;42.022;23.078;2023-07-22T03:13:01;15.77;;;7.78;;
20014;SDS011;61787;42.022;23.078;2023-07-22T03:14:03;18.30;;;7.93;;
20014;SDS011;61787;42.022;23.078;2023-07-22T03:15:05;14.98;;;7.32;;
20014;SDS011;61787;42.022;23.078;2023-07-22T03:16:10;15.02;;;7.10;;
20014;SDS011;61787;42.022;23.078;2023-07-22T03:17:12;16.40;;;6.95;;
20014;SDS011;61787;42.022;23.078;2023-07-22T03:18:18;12.07;;;6.68;;
20014;SDS011;61787;42.022;23.078;2023-07-22T03:19:21;14.00;;;6.57;;
20014;SDS011;61787;42.022;23.078;2023-07-22T03:20:22;15.23;;;6.90;;
20014;SDS011;61787;42.022;23.078;2023-07-22T03:21:25;13.35;;;6.80;;
20014;SDS011;61787;42.022;23.078;2023-07-22T03:22:27;13.35;;;7.15;;
20014;SDS011;61787;42.022;23.078;2023-07-22T03:23:29;18.42;;;7.32;;
20014;SDS011;61787;42.022;23.078;2023-07-22T03:24:30;13.00;;;6.97;;
20014;SDS011;61787;42.022;23.078;2023-07-22T03:25:32;15.90;;;7.40;;
20014;SDS011;61787;42.022;23.078;2023-07-22T03:26:35;12.63;;;7.55;;
20014;SDS011;61787;42.022;23.078;2023-07-22T03:27:37;14.77;;;7.63;;
20014;SDS011;61787;42.022;23.078;2023-07-22T03:28:39;12.80;;;6.72;;
20014;SDS011;61787;42.022;23.078;2023-07-22T03:29:42;13.68;;;7.32;;
20014;SDS011;61787;42.022;23.078;2023-07-22T03:30:44;16.45;;;7.50;;
20014;SDS011;61787;42.022;23.078;2023-07-22T03:31:46;11.73;;;6.75;;
20014;SDS011;61787;42.022;23.078;2023-07-22T03:32:48;14.75;;;6.85;;
20014;SDS011;61787;42.022;23.078;2023-07-22T03:33:51;16.38;;;7.57;;
20014;SDS011;61787;42.022;23.078;2023-07-22T03:34:53;16.63;;;7.75;;
20014;SDS011;61787;42.022;23.078;2023-07-22T03:35:55;13.23;;;7.78;;
20014;SDS011;61787;42.022;23.078;2023-07-22T03:36:57;14.85;;;7.35;;
20014;SDS011;61787;42.022;23.078;2023-07-22T03:38:00;22.15;;;8.32;;
20014;SDS011;61787;42.022;23.078;2023-07-22T03:39:01;22.38;;;7.53;;
20014;SDS011;61787;42.022;23.078;2023-07-22T03:40:04;19.08;;;7.10;;
20014;SDS011;61787;42.022;23.078;2023-07-22T03:41:20;18.45;;;7.10;;
20014;SDS011;61787;42.022;23.078;2023-07-22T03:42:22;13.15;;;7.18;;
20014;SDS011;61787;42.022;23.078;2023-07-22T03:43:23;15.18;;;8.10;;
20014;SDS011;61787;42.022;23.078;2023-07-22T03:44:25;13.77;;;7.32;;
20014;SDS011;61787;42.022;23.078;2023-07-22T03:45:27;14.50;;;7.05;;
20014;SDS011;61787;42.022;23.078;2023-07-22T03:46:29;13.43;;;7.45;;
20014;SDS011;61787;42.022;23.078;2023-07-22T03:47:30;16.02;;;7.78;;
20014;SDS011;61787;42.022;23.078;2023-07-22T03:48:32;16.23;;;7.68;;
20014;SDS011;61787;42.022;23.078;2023-07-22T03:49:34;14.07;;;8.25;;
20014;SDS011;61787;42.022;23.078;2023-07-22T03:50:36;15.38;;;7.60;;
20014;SDS011;61787;42.022;23.078;2023-07-22T03:51:37;14.07;;;7.57;;
20014;SDS011;61787;42.022;23.078;2023-07-22T03:52:39;13.43;;;8.43;;
20014;SDS011;61787;42.022;23.078;2023-07-22T03:53:41;20.42;;;8.27;;
20014;SDS011;61787;42.022;23.078;2023-07-22T03:54:42;15.82;;;7.75;;
20014;SDS011;61787;42.022;23.078;2023-07-22T03:55:44;21.58;;;8.10;;
20014;SDS011;61787;42.022;23.078;2023-07-22T03:56:46;16.20;;;8.07;;
20014;SDS011;61787;42.022;23.078;2023-07-22T03:57:47;20.92;;;7.50;;
20014;SDS011;61787;42.022;23.078;2023-07-22T03:58:50;14.32;;;7.25;;
20014;SDS011;61787;42.022;23.078;2023-07-22T03:59:54;21.40;;;8.18;;
20014;SDS011;61787;42.022;23.078;2023-07-22T04:00:56;16.88;;;7.82;;
20014;SDS011;61787;42.022;23.078;2023-07-22T04:01:58;20.80;;;7.93;;
20014;SDS011;61787;42.022;23.078;2023-07-22T04:03:00;13.65;;;7.47;;
20014;SDS011;61787;42.022;23.078;2023-07-22T04:04:05;17.88;;;8.27;;
20014;SDS011;61787;42.022;23.078;2023-07-22T04:05:06;13.63;;;7.55;;
20014;SDS011;61787;42.022;23.078;2023-07-22T04:06:09;16.10;;;7.18;;
20014;SDS011;61787;42.022;23.078;2023-07-22T04:07:11;14.15;;;7.38;;
20014;SDS011;61787;42.022;23.078;2023-07-22T04:08:12;14.52;;;7.53;;
20014;SDS011;61787;42.022;23.078;2023-07-22T04:09:14;21.25;;;7.95;;
20014;SDS011;61787;42.022;23.078;2023-07-22T04:10:16;11.90;;;7.20;;
20014;SDS011;61787;42.022;23.078;2023-07-22T04:11:17;11.65;;;7.68;;
20014;SDS011;61787;42.022;23.078;2023-07-22T04:12:19;14.55;;;7.50;;
20014;SDS011;61787;42.022;23.078;2023-07-22T04:13:21;15.75;;;7.63;;
20014;SDS011;61787;42.022;23.078;2023-07-22T04:14:23;16.42;;;7.18;;
20014;SDS011;61787;42.022;23.078;2023-07-22T04:15:25;20.73;;;7.97;;
20014;SDS011;61787;42.022;23.078;2023-07-22T04:16:26;14.45;;;7.75;;
20014;SDS011;61787;42.022;23.078;2023-07-22T04:17:29;16.42;;;7.80;;
20014;SDS011;61787;42.022;23.078;2023-07-22T04:18:31;17.15;;;7.75;;
20014;SDS011;61787;42.022;23.078;2023-07-22T04:19:35;12.95;;;7.35;;
20014;SDS011;61787;42.022;23.078;2023-07-22T04:20:37;14.50;;;7.68;;
20014;SDS011;61787;42.022;23.078;2023-07-22T04:21:39;15.85;;;7.55;;
20014;SDS011;61787;42.022;23.078;2023-07-22T04:22:40;11.95;;;7.53;;
20014;SDS011;61787;42.022;23.078;2023-07-22T04:23:42;18.63;;;8.48;;
20014;SDS011;61787;42.022;23.078;2023-07-22T04:24:44;18.52;;;7.38;;
20014;SDS011;61787;42.022;23.078;2023-07-22T04:25:46;14.27;;;8.48;;
20014;SDS011;61787;42.022;23.078;2023-07-22T04:26:47;18.83;;;8.63;;
20014;SDS011;61787;42.022;23.078;2023-07-22T04:27:49;14.23;;;8.50;;
20014;SDS011;61787;42.022;23.078;2023-07-22T04:28:51;13.68;;;8.27;;
20014;SDS011;61787;42.022;23.078;2023-07-22T04:29:52;22.05;;;8.95;;
20014;SDS011;61787;42.022;23.078;2023-07-22T04:30:58;12.10;;;7.50;;
20014;SDS011;61787;42.022;23.078;2023-07-22T04:32:01;13.70;;;7.85;;
20014;SDS011;61787;42.022;23.078;2023-07-22T04:33:03;20.20;;;8.32;;
20014;SDS011;61787;42.022;23.078;2023-07-22T04:34:06;15.75;;;8.40;;
20014;SDS011;61787;42.022;23.078;2023-07-22T04:35:09;19.33;;;8.90;;
20014;SDS011;61787;42.022;23.078;2023-07-22T04:36:11;18.13;;;8.80;;
20014;SDS011;61787;42.022;23.078;2023-07-22T04:37:12;19.05;;;9.00;;
20014;SDS011;61787;42.022;23.078;2023-07-22T04:38:14;15.50;;;8.45;;
20014;SDS011;61787;42.022;23.078;2023-07-22T04:39:16;16.50;;;8.95;;
20014;SDS011;61787;42.022;23.078;2023-07-22T04:40:19;15.70;;;8.52;;
20014;SDS011;61787;42.022;23.078;2023-07-22T04:41:20;20.00;;;9.05;;
20014;SDS011;61787;42.022;23.078;2023-07-22T04:42:22;19.80;;;9.38;;
20014;SDS011;61787;42.022;23.078;2023-07-22T04:43:24;18.17;;;9.05;;
20014;SDS011;61787;42.022;23.078;2023-07-22T04:44:26;14.27;;;8.98;;
20014;SDS011;61787;42.022;23.078;2023-07-22T04:45:28;17.05;;;8.75;;
20014;SDS011;61787;42.022;23.078;2023-07-22T04:46:30;15.55;;;9.15;;
20014;SDS011;61787;42.022;23.078;2023-07-22T04:47:32;18.52;;;8.15;;
20014;SDS011;61787;42.022;23.078;2023-07-22T04:48:33;14.23;;;8.40;;
20014;SDS011;61787;42.022;23.078;2023-07-22T04:49:35;17.13;;;9.63;;
20014;SDS011;61787;42.022;23.078;2023-07-22T04:50:37;16.35;;;9.68;;
20014;SDS011;61787;42.022;23.078;2023-07-22T04:51:42;19.95;;;9.40;;
20014;SDS011;61787;42.022;23.078;2023-07-22T04:52:47;16.95;;;8.48;;
20014;SDS011;61787;42.022;23.078;2023-07-22T04:53:49;16.10;;;8.45;;
20014;SDS011;61787;42.022;23.078;2023-07-22T04:54:51;18.23;;;8.35;;
20014;SDS011;61787;42.022;23.078;2023-07-22T04:55:52;20.27;;;8.75;;
20014;SDS011;61787;42.022;23.078;2023-07-22T04:56:56;19.20;;;8.77;;
20014;SDS011;61787;42.022;23.078;2023-07-22T04:58:01;21.73;;;9.15;;
20014;SDS011;61787;42.022;23.078;2023-07-22T04:59:04;21.05;;;8.25;;
20014;SDS011;61787;42.022;23.078;2023-07-22T05:00:06;20.35;;;8.93;;
20014;SDS011;61787;42.022;23.078;2023-07-22T05:01:16;26.63;;;10.40;;
20014;SDS011;61787;42.022;23.078;2023-07-22T05:02:18;23.63;;;9.32;;
20014;SDS011;61787;42.022;23.078;2023-07-22T05:03:19;16.38;;;8.40;;
20014;SDS011;61787;42.022;23.078;2023-07-22T05:04:21;17.38;;;8.82;;
20014;SDS011;61787;42.022;23.078;2023-07-22T05:05:23;19.67;;;8.65;;
20014;SDS011;61787;42.022;23.078;2023-07-22T05:06:25;16.58;;;8.35;;
20014;SDS011;61787;42.022;23.078;2023-07-22T05:07:27;17.20;;;8.15;;
20014;SDS011;61787;42.022;23.078;2023-07-22T05:08:31;16.25;;;8.80;;
20014;SDS011;61787;42.022;23.078;2023-07-22T05:09:33;18.45;;;8.98;;
20014;SDS011;61787;42.022;23.078;2023-07-22T05:10:36;14.60;;;8.00;;
20014;SDS011;61787;42.022;23.078;2023-07-22T05:11:38;18.60;;;8.27;;
20014;SDS011;61787;42.022;23.078;2023-07-22T05:12:40;20.45;;;8.40;;
20014;SDS011;61787;42.022;23.078;2023-07-22T05:13:42;18.10;;;8.32;;
20014;SDS011;61787;42.022;23.078;2023-07-22T05:14:48;22.73;;;8.80;;
20014;SDS011;61787;42.022;23.078;2023-07-22T05:15:50;18.27;;;8.60;;
20014;SDS011;61787;42.022;23.078;2023-07-22T05:16:52;16.15;;;8.35;;
20014;SDS011;61787;42.022;23.078;2023-07-22T05:17:53;17.30;;;8.18;;
20014;SDS011;61787;42.022;23.078;2023-07-22T05:18:55;25.15;;;8.27;;
20014;SDS011;61787;42.022;23.078;2023-07-22T05:19:57;24.38;;;9.07;;
20014;SDS011;61787;42.022;23.078;2023-07-22T05:20:59;13.90;;;8.30;;
20014;SDS011;61787;42.022;23.078;2023-07-22T05:22:01;22.02;;;8.05;;
20014;SDS011;61787;42.022;23.078;2023-07-22T05:23:02;19.95;;;8.82;;
20014;SDS011;61787;42.022;23.078;2023-07-22T05:24:04;21.17;;;8.98;;
20014;SDS011;61787;42.022;23.078;2023-07-22T05:25:06;23.50;;;9.13;;
20014;SDS011;61787;42.022;23.078;2023-07-22T05:26:09;23.35;;;8.48;;
20014;SDS011;61787;42.022;23.078;2023-07-22T05:27:10;16.13;;;8.75;;
20014;SDS011;61787;42.022;23.078;2023-07-22T05:28:12;18.52;;;7.90;;
20014;SDS011;61787;42.022;23.078;2023-07-22T05:29:14;20.60;;;8.80;;
20014;SDS011;61787;42.022;23.078;2023-07-22T05:30:15;22.27;;;9.55;;
20014;SDS011;61787;42.022;23.078;2023-07-22T05:31:36;29.73;;;9.10;;
20014;SDS011;61787;42.022;23.078;2023-07-22T05:32:38;15.07;;;8.60;;
20014;SDS011;61787;42.022;23.078;2023-07-22T05:33:40;17.63;;;8.13;;
20014;SDS011;61787;42.022;23.078;2023-07-22T05:34:41;20.73;;;8.50;;
20014;SDS011;61787;42.022;23.078;2023-07-22T05:35:43;15.13;;;7.82;;
20014;SDS011;61787;42.022;23.078;2023-07-22T05:36:48;14.27;;;7.70;;
20014;SDS011;61787;42.022;23.078;2023-07-22T05:37:50;14.85;;;8.43;;
20014;SDS011;61787;42.022;23.078;2023-07-22T05:38:52;14.77;;;8.82;;
20014;SDS011;61787;42.022;23.078;2023-07-22T05:39:53;21.15;;;8.00;;
20014;SDS011;61787;42.022;23.078;2023-07-22T05:40:55;14.38;;;8.85;;
20014;SDS011;61787;42.022;23.078;2023-07-22T05:41:57;20.05;;;8.52;;
20014;SDS011;61787;42.022;23.078;2023-07-22T05:42:58;15.57;;;8.15;;
20014;SDS011;61787;42.022;23.078;2023-07-22T05:44:00;13.50;;;8.30;;
20014;SDS011;61787;42.022;23.078;2023-07-22T05:45:02;15.23;;;7.93;;
20014;SDS011;61787;42.022;23.078;2023-07-22T05:46:04;18.35;;;8.43;;
20014;SDS011;61787;42.022;23.078;2023-07-22T05:47:06;18.60;;;9.38;;
20014;SDS011;61787;42.022;23.078;2023-07-22T05:48:07;21.92;;;9.23;;
20014;SDS011;61787;42.022;23.078;2023-07-22T05:49:09;17.48;;;8.60;;
20014;SDS011;61787;42.022;23.078;2023-07-22T05:50:12;20.90;;;7.95;;
20014;SDS011;61787;42.022;23.078;2023-07-22T05:51:13;15.57;;;8.43;;
20014;SDS011;61787;42.022;23.078;2023-07-22T05:52:16;17.52;;;8.02;;
20014;SDS011;61787;42.022;23.078;2023-07-22T05:53:18;22.08;;;8.88;;
20014;SDS011;61787;42.022;23.078;2023-07-22T05:54:20;13.85;;;8.55;;
20014;SDS011;61787;42.022;23.078;2023-07-22T05:55:23;18.88;;;8.82;;
20014;SDS011;61787;42.022;23.078;2023-07-22T05:56:24;15.00;;;8.70;;
20014;SDS011;61787;42.022;23.078;2023-07-22T05:57:26;22.40;;;9.55;;
20014;SDS011;61787;42.022;23.078;2023-07-22T05:58:31;20.80;;;8.40;;
20014;SDS011;61787;42.022;23.078;2023-07-22T05:59:33;22.00;;;9.30;;
20014;SDS011;61787;42.022;23.078;2023-07-22T06:00:37;17.02;;;8.75;;
20014;SDS011;61787;42.022;23.078;2023-07-22T06:01:39;16.75;;;8.25;;
20014;SDS011;61787;42.022;23.078;2023-07-22T06:02:41;13.68;;;8.15;;
20014;SDS011;61787;42.022;23.078;2023-07-22T06:03:43;16.42;;;8.80;;